createdAt,value
2017-12-16T00:00:32.312Z,0.00
2017-12-16T00:01:07.587Z,0.00
2017-12-16T00:01:42.875Z,0.00
2017-12-16T00:02:18.548Z,0.00
2017-12-16T00:02:54.036Z,0.00
2017-12-16T00:03:30.262Z,0.00
2017-12-16T00:04:05.732Z,0.00
2017-12-16T00:04:41.130Z,0.00
2017-12-16T00:05:16.789Z,0.00
2017-12-16T00:05:51.978Z,0.00
2017-12-16T00:06:27.276Z,0.00
2017-12-16T00:07:03.536Z,0.00
2017-12-16T00:07:38.822Z,0.00
2017-12-16T00:08:13.898Z,0.00
2017-12-16T00:08:49.615Z,0.00
2017-12-16T00:09:24.600Z,0.00
2017-12-16T00:10:00.067Z,0.00
2017-12-16T00:10:35.359Z,0.00
2017-12-16T00:11:12.029Z,0.00
2017-12-16T00:11:47.123Z,0.00
2017-12-16T00:12:22.823Z,0.00
2017-12-16T00:12:58.385Z,0.00
2017-12-16T00:13:38.796Z,0.00
2017-12-16T00:14:14.201Z,0.00
2017-12-16T00:14:50.390Z,0.00
2017-12-16T00:15:25.681Z,0.00
2017-12-16T00:16:00.949Z,0.00
2017-12-16T00:16:36.348Z,0.00
2017-12-16T00:17:11.413Z,0.00
2017-12-16T00:17:46.812Z,0.00
2017-12-16T00:18:22.505Z,0.00
2017-12-16T00:18:57.583Z,0.00
2017-12-16T00:19:33.195Z,0.00
2017-12-16T00:20:08.463Z,0.00
2017-12-16T00:20:45.148Z,0.00
2017-12-16T00:21:20.225Z,0.00
2017-12-16T00:21:55.534Z,0.00
2017-12-16T00:22:31.133Z,0.00
2017-12-16T00:23:06.519Z,0.00
2017-12-16T00:23:41.924Z,0.00
2017-12-16T00:24:17.198Z,0.00
2017-12-16T00:24:52.621Z,0.00
2017-12-16T00:25:28.026Z,0.00
2017-12-16T00:26:03.431Z,0.00
2017-12-16T00:26:38.740Z,0.00
2017-12-16T00:27:14.124Z,0.00
2017-12-16T00:27:52.232Z,0.00
2017-12-16T00:28:27.433Z,0.00
2017-12-16T00:29:04.309Z,0.00
2017-12-16T00:29:39.616Z,0.00
2017-12-16T00:30:14.839Z,0.00
2017-12-16T00:30:51.740Z,0.00
2017-12-16T00:31:26.851Z,0.00
2017-12-16T00:32:02.123Z,0.00
2017-12-16T00:32:37.915Z,0.00
2017-12-16T00:33:13.386Z,0.00
2017-12-16T00:33:48.978Z,0.00
2017-12-16T00:34:24.482Z,0.00
2017-12-16T00:34:59.750Z,0.00
2017-12-16T00:35:35.616Z,0.00
2017-12-16T00:36:11.562Z,0.00
2017-12-16T00:36:46.867Z,0.00
2017-12-16T00:37:22.160Z,0.00
2017-12-16T00:37:57.527Z,0.00
2017-12-16T00:38:32.621Z,0.00
2017-12-16T00:39:08.291Z,0.00
2017-12-16T00:39:43.783Z,0.00
2017-12-16T00:40:18.946Z,0.00
2017-12-16T00:40:54.569Z,0.00
2017-12-16T00:41:29.663Z,0.00
2017-12-16T00:42:04.726Z,0.00
2017-12-16T00:42:41.418Z,0.00
2017-12-16T00:43:17.281Z,0.00
2017-12-16T00:43:52.473Z,0.00
2017-12-16T00:44:30.059Z,0.00
2017-12-16T00:45:05.125Z,0.00
2017-12-16T00:45:43.627Z,0.00
2017-12-16T00:46:18.722Z,0.00
2017-12-16T00:46:57.426Z,0.00
2017-12-16T00:47:32.511Z,0.00
2017-12-16T00:48:07.680Z,0.00
2017-12-16T00:48:43.572Z,0.00
2017-12-16T00:49:20.738Z,1.60
2017-12-16T00:49:56.251Z,0.80
2017-12-16T00:50:31.445Z,0.00
2017-12-16T00:51:07.215Z,0.00
2017-12-16T00:51:42.931Z,0.00
2017-12-16T00:52:18.099Z,0.00
2017-12-16T00:52:53.236Z,2.40
2017-12-16T00:53:28.495Z,1.60
2017-12-16T00:54:03.664Z,1.60
2017-12-16T00:54:39.755Z,2.40
2017-12-16T00:55:14.932Z,1.60
2017-12-16T00:55:50.220Z,4.00
2017-12-16T00:56:26.308Z,3.20
2017-12-16T00:57:01.804Z,4.00
2017-12-16T00:57:36.988Z,0.80
2017-12-16T00:58:11.967Z,2.40
2017-12-16T00:58:47.363Z,3.20
2017-12-16T00:59:22.465Z,2.40
2017-12-16T00:59:57.729Z,3.20
2017-12-16T01:00:33.017Z,2.40
2017-12-16T01:01:11.483Z,2.40
2017-12-16T01:01:48.682Z,0.80
2017-12-16T01:02:23.919Z,0.00
2017-12-16T01:02:59.089Z,0.80
2017-12-16T01:03:34.483Z,2.40
2017-12-16T01:04:09.749Z,2.40
2017-12-16T01:04:45.244Z,1.60
2017-12-16T01:05:20.806Z,2.40
2017-12-16T01:05:57.202Z,1.60
2017-12-16T01:06:32.399Z,1.60
2017-12-16T01:07:09.660Z,1.60
2017-12-16T01:07:44.787Z,3.20
2017-12-16T01:08:20.345Z,3.20
2017-12-16T01:08:55.938Z,1.60
2017-12-16T01:09:31.378Z,0.80
2017-12-16T01:10:06.643Z,2.40
2017-12-16T01:10:43.743Z,1.60
2017-12-16T01:11:18.817Z,2.40
2017-12-16T01:11:54.313Z,1.60
2017-12-16T01:12:29.590Z,2.40
2017-12-16T01:13:04.916Z,2.40
2017-12-16T01:13:43.705Z,1.60
2017-12-16T01:14:19.766Z,0.80
2017-12-16T01:14:54.869Z,0.00
2017-12-16T01:15:30.085Z,0.00
2017-12-16T01:16:05.252Z,0.00
2017-12-16T01:16:40.550Z,0.00
2017-12-16T01:17:15.817Z,0.00
2017-12-16T01:17:51.394Z,0.00
2017-12-16T01:18:27.008Z,0.80
2017-12-16T01:19:01.982Z,1.60
2017-12-16T01:19:37.196Z,1.60
2017-12-16T01:20:12.363Z,0.00
2017-12-16T01:20:47.353Z,2.40
2017-12-16T01:21:22.634Z,1.60
2017-12-16T01:21:58.296Z,2.40
2017-12-16T01:22:33.783Z,0.00
2017-12-16T01:23:09.062Z,0.00
2017-12-16T01:23:44.573Z,0.80
2017-12-16T01:24:19.737Z,0.00
2017-12-16T01:24:55.126Z,0.00
2017-12-16T01:25:30.316Z,0.80
2017-12-16T01:26:05.680Z,1.60
2017-12-16T01:26:41.062Z,0.80
2017-12-16T01:27:16.136Z,3.20
2017-12-16T01:27:51.317Z,3.20
2017-12-16T01:28:28.416Z,2.40
2017-12-16T01:29:03.810Z,0.00
2017-12-16T01:29:39.304Z,2.40
2017-12-16T01:30:14.479Z,2.40
2017-12-16T01:30:51.981Z,2.40
2017-12-16T01:31:27.472Z,3.20
2017-12-16T01:32:02.942Z,2.40
2017-12-16T01:32:38.140Z,2.40
2017-12-16T01:33:13.709Z,2.40
2017-12-16T01:33:48.900Z,3.20
2017-12-16T01:34:24.220Z,1.60
2017-12-16T01:34:59.595Z,0.80
2017-12-16T01:35:35.190Z,0.00
2017-12-16T01:36:10.357Z,0.00
2017-12-16T01:36:45.647Z,1.60
2017-12-16T01:37:20.931Z,0.00
2017-12-16T01:37:55.998Z,1.60
2017-12-16T01:38:31.187Z,1.60
2017-12-16T01:39:06.247Z,2.40
2017-12-16T01:39:41.363Z,1.60
2017-12-16T01:40:16.734Z,2.40
2017-12-16T01:40:51.821Z,4.00
2017-12-16T01:41:27.116Z,2.40
2017-12-16T01:42:02.291Z,4.00
2017-12-16T01:42:37.389Z,5.60
2017-12-16T01:43:12.553Z,2.40
2017-12-16T01:43:47.947Z,2.40
2017-12-16T01:44:23.134Z,3.20
2017-12-16T01:44:58.228Z,3.20
2017-12-16T01:45:33.514Z,3.20
2017-12-16T01:46:08.897Z,1.60
2017-12-16T01:46:44.585Z,2.40
2017-12-16T01:47:19.854Z,1.60
2017-12-16T01:47:55.344Z,2.40
2017-12-16T01:48:30.535Z,4.00
2017-12-16T01:49:05.798Z,3.20
2017-12-16T01:49:41.585Z,4.00
2017-12-16T01:50:16.987Z,4.80
2017-12-16T01:50:52.379Z,3.20
2017-12-16T01:51:27.672Z,1.60
2017-12-16T01:52:02.843Z,1.60
2017-12-16T01:52:38.045Z,4.00
2017-12-16T01:53:13.302Z,4.00
2017-12-16T01:53:48.895Z,6.40
2017-12-16T01:54:23.878Z,3.20
2017-12-16T01:54:59.042Z,4.80
2017-12-16T01:55:34.355Z,4.00
2017-12-16T01:56:09.726Z,3.20
2017-12-16T01:56:45.118Z,4.00
2017-12-16T01:57:20.386Z,0.80
2017-12-16T01:57:55.775Z,1.60
2017-12-16T01:58:31.569Z,2.40
2017-12-16T01:59:06.831Z,1.60
2017-12-16T01:59:42.341Z,4.80
2017-12-16T02:00:17.831Z,4.00
2017-12-16T02:00:53.246Z,6.40
2017-12-16T02:01:28.339Z,5.60
2017-12-16T02:02:03.697Z,2.40
2017-12-16T02:02:38.837Z,4.00
2017-12-16T02:03:13.982Z,4.80
2017-12-16T02:03:49.271Z,5.60
2017-12-16T02:04:24.661Z,3.20
2017-12-16T02:04:59.923Z,2.40
2017-12-16T02:05:35.522Z,4.00
2017-12-16T02:06:10.815Z,2.40
2017-12-16T02:06:46.204Z,4.00
2017-12-16T02:07:21.704Z,3.20
2017-12-16T02:07:56.767Z,4.00
2017-12-16T02:08:31.961Z,3.20
2017-12-16T02:09:07.024Z,4.00
2017-12-16T02:09:42.322Z,2.40
2017-12-16T02:10:17.684Z,4.80
2017-12-16T02:10:52.977Z,6.40
2017-12-16T02:11:28.299Z,3.20
2017-12-16T02:12:03.363Z,2.40
2017-12-16T02:12:38.971Z,1.60
2017-12-16T02:13:14.336Z,4.80
2017-12-16T02:13:49.730Z,4.80
2017-12-16T02:14:25.245Z,3.20
2017-12-16T02:15:00.506Z,5.60
2017-12-16T02:15:36.202Z,7.20
2017-12-16T02:16:11.475Z,6.40
2017-12-16T02:16:46.904Z,4.80
2017-12-16T02:17:22.406Z,4.00
2017-12-16T02:17:57.977Z,3.20
2017-12-16T02:18:33.669Z,2.40
2017-12-16T02:19:09.152Z,4.80
2017-12-16T02:19:44.454Z,5.60
2017-12-16T02:20:19.920Z,8.00
2017-12-16T02:20:55.228Z,2.40
2017-12-16T02:21:30.730Z,2.40
2017-12-16T02:22:06.142Z,4.80
2017-12-16T02:22:41.651Z,6.40
2017-12-16T02:23:16.924Z,5.60
2017-12-16T02:23:52.232Z,3.20
2017-12-16T02:24:27.631Z,4.80
2017-12-16T02:25:02.909Z,3.20
2017-12-16T02:25:38.207Z,5.60
2017-12-16T02:26:13.589Z,5.60
2017-12-16T02:26:48.985Z,4.00
2017-12-16T02:27:24.701Z,2.40
2017-12-16T02:28:00.386Z,3.20
2017-12-16T02:28:35.996Z,3.20
2017-12-16T02:29:11.368Z,2.40
2017-12-16T02:29:46.578Z,0.00
2017-12-16T02:30:21.681Z,0.00
2017-12-16T02:30:56.850Z,0.00
2017-12-16T02:31:32.454Z,0.00
2017-12-16T02:32:07.532Z,0.00
2017-12-16T02:32:43.055Z,0.80
2017-12-16T02:33:18.540Z,0.80
2017-12-16T02:33:53.799Z,3.20
2017-12-16T02:34:29.094Z,2.40
2017-12-16T02:35:04.669Z,3.20
2017-12-16T02:35:40.866Z,4.00
2017-12-16T02:36:16.243Z,5.60
2017-12-16T02:36:51.438Z,4.80
2017-12-16T02:37:26.866Z,5.60
2017-12-16T02:38:02.236Z,4.00
2017-12-16T02:38:37.736Z,3.20
2017-12-16T02:39:13.520Z,6.40
2017-12-16T02:39:48.515Z,8.00
2017-12-16T02:40:23.815Z,5.60
2017-12-16T02:40:59.184Z,4.80
2017-12-16T02:41:34.582Z,5.60
2017-12-16T02:42:09.760Z,8.00
2017-12-16T02:42:45.182Z,7.20
2017-12-16T02:43:20.550Z,4.80
2017-12-16T02:43:55.956Z,0.80
2017-12-16T02:44:31.541Z,4.00
2017-12-16T02:45:09.601Z,8.00
2017-12-16T02:45:45.801Z,4.80
2017-12-16T02:46:22.591Z,3.20
2017-12-16T02:46:58.179Z,4.80
2017-12-16T02:47:33.674Z,4.80
2017-12-16T02:48:09.086Z,4.80
2017-12-16T02:48:44.587Z,2.40
2017-12-16T02:49:20.597Z,3.20
2017-12-16T02:49:55.790Z,2.40
2017-12-16T02:50:30.892Z,2.40
2017-12-16T02:51:07.188Z,3.20
2017-12-16T02:51:42.379Z,3.20
2017-12-16T02:52:17.855Z,4.00
2017-12-16T02:52:52.967Z,4.00
2017-12-16T02:53:28.300Z,4.80
2017-12-16T02:54:03.585Z,3.20
2017-12-16T02:54:39.183Z,4.00
2017-12-16T02:55:14.666Z,5.60
2017-12-16T02:55:50.367Z,5.60
2017-12-16T02:56:25.655Z,5.60
2017-12-16T02:57:01.426Z,6.40
2017-12-16T02:57:36.725Z,4.00
2017-12-16T02:58:12.234Z,1.60
2017-12-16T02:58:47.745Z,4.80
2017-12-16T02:59:22.941Z,3.20
2017-12-16T02:59:58.224Z,2.40
2017-12-16T03:00:33.323Z,5.60
2017-12-16T03:01:11.202Z,0.80
2017-12-16T03:01:47.710Z,1.60
2017-12-16T03:02:23.025Z,2.40
2017-12-16T03:02:58.208Z,0.80
2017-12-16T03:03:33.329Z,3.20
2017-12-16T03:04:09.328Z,1.60
2017-12-16T03:04:44.644Z,1.60
2017-12-16T03:05:21.941Z,0.00
2017-12-16T03:05:57.121Z,0.00
2017-12-16T03:06:32.330Z,0.00
2017-12-16T03:07:07.792Z,2.40
2017-12-16T03:07:43.013Z,1.60
2017-12-16T03:08:17.969Z,2.40
2017-12-16T03:08:53.386Z,4.80
2017-12-16T03:09:28.632Z,1.60
2017-12-16T03:10:03.825Z,4.80
2017-12-16T03:10:39.744Z,4.00
2017-12-16T03:11:14.935Z,4.00
2017-12-16T03:11:50.151Z,2.40
2017-12-16T03:12:25.958Z,1.60
2017-12-16T03:13:01.044Z,5.60
2017-12-16T03:13:36.347Z,4.80
2017-12-16T03:14:11.724Z,4.80
2017-12-16T03:14:47.852Z,4.80
2017-12-16T03:15:23.167Z,7.20
2017-12-16T03:15:58.547Z,2.40
2017-12-16T03:16:34.267Z,5.60
2017-12-16T03:17:09.544Z,4.00
2017-12-16T03:17:45.058Z,4.00
2017-12-16T03:18:20.634Z,1.60
2017-12-16T03:18:56.230Z,1.60
2017-12-16T03:19:31.635Z,0.00
2017-12-16T03:20:06.941Z,0.00
2017-12-16T03:20:42.644Z,0.80
2017-12-16T03:21:17.918Z,2.40
2017-12-16T03:21:53.422Z,4.80
2017-12-16T03:22:28.956Z,5.60
2017-12-16T03:23:04.436Z,5.60
2017-12-16T03:23:40.449Z,3.20
2017-12-16T03:24:16.014Z,8.00
2017-12-16T03:24:51.230Z,6.40
2017-12-16T03:25:26.865Z,4.80
2017-12-16T03:26:05.365Z,6.40
2017-12-16T03:26:40.668Z,4.80
2017-12-16T03:27:16.050Z,3.20
2017-12-16T03:27:51.052Z,4.00
2017-12-16T03:28:26.429Z,3.20
2017-12-16T03:29:01.631Z,2.40
2017-12-16T03:29:37.233Z,4.00
2017-12-16T03:30:12.707Z,6.40
2017-12-16T03:30:48.135Z,5.60
2017-12-16T03:31:23.536Z,3.20
2017-12-16T03:31:58.834Z,4.00
2017-12-16T03:32:34.048Z,4.00
2017-12-16T03:33:15.428Z,1.60
2017-12-16T03:33:54.123Z,3.20
2017-12-16T03:34:29.816Z,3.20
2017-12-16T03:35:05.804Z,1.60
2017-12-16T03:35:42.404Z,3.20
2017-12-16T03:36:18.213Z,4.00
2017-12-16T03:36:53.836Z,3.20
2017-12-16T03:37:29.228Z,5.60
2017-12-16T03:38:04.305Z,5.60
2017-12-16T03:38:40.707Z,4.80
2017-12-16T03:39:15.979Z,3.20
2017-12-16T03:39:51.476Z,0.80
2017-12-16T03:40:26.942Z,1.60
2017-12-16T03:41:05.444Z,4.00
2017-12-16T03:41:40.769Z,1.60
2017-12-16T03:42:16.054Z,0.00
2017-12-16T03:42:51.168Z,1.60
2017-12-16T03:43:26.450Z,2.40
2017-12-16T03:44:01.778Z,2.40
2017-12-16T03:44:36.988Z,1.60
2017-12-16T03:45:12.568Z,2.40
2017-12-16T03:45:49.579Z,2.40
2017-12-16T03:46:25.045Z,4.00
2017-12-16T03:47:00.298Z,4.80
2017-12-16T03:47:35.710Z,4.80
2017-12-16T03:48:10.893Z,4.00
2017-12-16T03:48:46.482Z,1.60
2017-12-16T03:49:21.977Z,2.40
2017-12-16T03:49:57.276Z,3.20
2017-12-16T03:50:32.701Z,3.20
2017-12-16T03:51:09.276Z,4.80
2017-12-16T03:51:45.092Z,4.00
2017-12-16T03:52:20.507Z,2.40
2017-12-16T03:52:55.514Z,0.80
2017-12-16T03:53:30.737Z,0.80
2017-12-16T03:54:06.019Z,1.60
2017-12-16T03:54:41.761Z,2.40
2017-12-16T03:55:16.951Z,3.20
2017-12-16T03:55:52.455Z,5.60
2017-12-16T03:56:27.824Z,2.40
2017-12-16T03:57:03.442Z,3.20
2017-12-16T03:57:39.374Z,2.40
2017-12-16T03:58:14.849Z,2.40
2017-12-16T03:58:50.250Z,0.80
2017-12-16T03:59:25.641Z,0.80
2017-12-16T04:00:00.738Z,5.60
2017-12-16T04:00:37.369Z,4.00
2017-12-16T04:01:12.942Z,1.60
2017-12-16T04:01:48.156Z,2.40
2017-12-16T04:02:23.147Z,3.20
2017-12-16T04:02:58.479Z,2.40
2017-12-16T04:03:33.875Z,3.20
2017-12-16T04:04:09.245Z,1.60
2017-12-16T04:04:44.470Z,1.60
2017-12-16T04:05:19.532Z,0.00
2017-12-16T04:05:55.256Z,0.00
2017-12-16T04:06:30.571Z,2.40
2017-12-16T04:07:06.153Z,4.80
2017-12-16T04:07:41.565Z,2.40
2017-12-16T04:08:17.062Z,0.80
2017-12-16T04:08:55.675Z,0.00
2017-12-16T04:09:30.876Z,0.00
2017-12-16T04:10:06.162Z,0.00
2017-12-16T04:10:44.149Z,0.80
2017-12-16T04:11:19.740Z,1.60
2017-12-16T04:11:54.831Z,2.40
2017-12-16T04:12:30.433Z,4.80
2017-12-16T04:13:05.703Z,3.20
2017-12-16T04:13:41.159Z,2.40
2017-12-16T04:14:16.558Z,2.40
2017-12-16T04:14:51.878Z,1.60
2017-12-16T04:15:27.180Z,1.60
2017-12-16T04:16:02.913Z,2.40
2017-12-16T04:16:39.203Z,2.40
2017-12-16T04:17:14.385Z,2.40
2017-12-16T04:17:49.784Z,1.60
2017-12-16T04:18:25.154Z,0.80
2017-12-16T04:19:00.588Z,0.80
2017-12-16T04:19:35.924Z,3.20
2017-12-16T04:20:11.188Z,4.00
2017-12-16T04:20:46.600Z,2.40
2017-12-16T04:21:22.097Z,2.40
2017-12-16T04:21:57.594Z,3.20
2017-12-16T04:22:33.387Z,4.00
2017-12-16T04:23:08.666Z,3.20
2017-12-16T04:23:44.061Z,3.20
2017-12-16T04:24:19.483Z,5.60
2017-12-16T04:24:54.795Z,1.60
2017-12-16T04:25:30.117Z,4.00
2017-12-16T04:26:05.304Z,0.80
2017-12-16T04:26:41.529Z,4.80
2017-12-16T04:27:17.220Z,4.00
2017-12-16T04:27:52.622Z,0.80
2017-12-16T04:28:28.034Z,3.20
2017-12-16T04:29:03.030Z,7.20
2017-12-16T04:29:38.467Z,1.60
2017-12-16T04:30:13.542Z,0.80
2017-12-16T04:30:50.336Z,2.40
2017-12-16T04:31:25.518Z,1.60
2017-12-16T04:32:00.710Z,2.40
2017-12-16T04:32:36.210Z,2.40
2017-12-16T04:33:11.576Z,6.40
2017-12-16T04:33:47.073Z,4.00
2017-12-16T04:34:22.444Z,6.40
2017-12-16T04:34:57.666Z,4.00
2017-12-16T04:35:33.065Z,4.80
2017-12-16T04:36:08.239Z,2.40
2017-12-16T04:36:43.530Z,1.60
2017-12-16T04:37:19.006Z,3.20
2017-12-16T04:37:54.295Z,3.20
2017-12-16T04:38:29.996Z,3.20
2017-12-16T04:39:05.065Z,4.80
2017-12-16T04:39:40.562Z,3.20
2017-12-16T04:40:16.058Z,2.40
2017-12-16T04:40:51.452Z,2.40
2017-12-16T04:41:27.032Z,4.00
2017-12-16T04:42:02.823Z,4.80
2017-12-16T04:42:38.624Z,6.40
2017-12-16T04:43:13.891Z,2.40
2017-12-16T04:43:48.979Z,2.40
2017-12-16T04:44:24.752Z,0.80
2017-12-16T04:45:00.355Z,1.60
2017-12-16T04:45:36.106Z,1.60
2017-12-16T04:46:11.383Z,4.00
2017-12-16T04:46:46.777Z,4.00
2017-12-16T04:47:21.749Z,3.20
2017-12-16T04:48:00.678Z,3.20
2017-12-16T04:48:36.030Z,1.60
2017-12-16T04:49:11.500Z,2.40
2017-12-16T04:49:46.793Z,5.60
2017-12-16T04:50:22.165Z,2.40
2017-12-16T04:50:57.786Z,1.60
2017-12-16T04:51:33.388Z,4.80
2017-12-16T04:52:08.456Z,3.20
2017-12-16T04:52:45.248Z,3.20
2017-12-16T04:53:20.326Z,4.80
2017-12-16T04:53:55.621Z,4.00
2017-12-16T04:54:31.015Z,3.20
2017-12-16T04:55:06.783Z,5.60
2017-12-16T04:55:43.079Z,5.60
2017-12-16T04:56:18.268Z,3.20
2017-12-16T04:56:53.563Z,6.40
2017-12-16T04:57:28.954Z,4.00
2017-12-16T04:58:04.424Z,3.20
2017-12-16T04:58:39.616Z,6.40
2017-12-16T04:59:15.038Z,6.40
2017-12-16T04:59:50.188Z,5.60
2017-12-16T05:00:25.367Z,4.80
2017-12-16T05:01:00.556Z,2.40
2017-12-16T05:01:36.881Z,2.40
2017-12-16T05:02:12.059Z,0.80
2017-12-16T05:02:49.063Z,1.60
2017-12-16T05:03:24.232Z,1.60
2017-12-16T05:03:59.536Z,5.60
2017-12-16T05:04:35.028Z,8.00
2017-12-16T05:05:10.397Z,4.00
2017-12-16T05:05:46.793Z,3.20
2017-12-16T05:06:21.868Z,4.80
2017-12-16T05:06:57.598Z,4.00
2017-12-16T05:07:33.490Z,4.00
2017-12-16T05:08:08.566Z,2.40
2017-12-16T05:08:43.955Z,2.40
2017-12-16T05:09:19.324Z,3.20
2017-12-16T05:09:54.719Z,4.00
2017-12-16T05:10:29.916Z,4.80
2017-12-16T05:11:05.490Z,4.00
2017-12-16T05:11:40.986Z,3.20
2017-12-16T05:12:16.406Z,2.40
2017-12-16T05:12:52.103Z,4.00
2017-12-16T05:13:27.068Z,2.40
2017-12-16T05:14:02.568Z,4.00
2017-12-16T05:14:37.987Z,3.20
2017-12-16T05:15:13.365Z,3.20
2017-12-16T05:15:49.760Z,4.80
2017-12-16T05:16:25.031Z,2.40
2017-12-16T05:17:00.330Z,0.80
2017-12-16T05:17:35.853Z,1.60
2017-12-16T05:18:11.224Z,1.60
2017-12-16T05:18:46.834Z,4.80
2017-12-16T05:19:22.306Z,3.20
2017-12-16T05:19:57.594Z,2.40
2017-12-16T05:20:33.195Z,1.60
2017-12-16T05:21:08.162Z,3.20
2017-12-16T05:21:43.968Z,2.40
2017-12-16T05:22:19.138Z,2.40
2017-12-16T05:22:54.356Z,2.40
2017-12-16T05:23:29.759Z,3.20
2017-12-16T05:24:05.026Z,1.60
2017-12-16T05:24:43.536Z,4.00
2017-12-16T05:25:19.215Z,2.40
2017-12-16T05:25:54.813Z,4.00
2017-12-16T05:26:30.317Z,1.60
2017-12-16T05:27:08.696Z,3.20
2017-12-16T05:27:46.599Z,4.00
2017-12-16T05:28:21.990Z,2.40
2017-12-16T05:29:00.689Z,2.40
2017-12-16T05:29:37.395Z,0.80
2017-12-16T05:30:12.561Z,1.60
2017-12-16T05:30:49.555Z,2.40
2017-12-16T05:31:25.721Z,3.20
2017-12-16T05:32:01.117Z,2.40
2017-12-16T05:32:36.317Z,3.20
2017-12-16T05:33:11.490Z,3.20
2017-12-16T05:33:47.009Z,4.00
2017-12-16T05:34:22.682Z,3.20
2017-12-16T05:34:58.386Z,4.80
2017-12-16T05:35:33.678Z,3.20
2017-12-16T05:36:09.260Z,2.40
2017-12-16T05:36:44.349Z,2.40
2017-12-16T05:37:19.774Z,0.80
2017-12-16T05:37:55.160Z,3.20
2017-12-16T05:38:30.552Z,1.60
2017-12-16T05:39:06.246Z,3.20
2017-12-16T05:39:42.139Z,5.60
2017-12-16T05:40:17.512Z,3.20
2017-12-16T05:40:53.411Z,6.40
2017-12-16T05:41:28.684Z,4.80
2017-12-16T05:42:03.971Z,4.00
2017-12-16T05:42:43.360Z,2.40
2017-12-16T05:43:18.538Z,1.60
2017-12-16T05:43:54.038Z,3.20
2017-12-16T05:44:29.467Z,4.00
2017-12-16T05:45:07.832Z,3.20
2017-12-16T05:45:43.632Z,3.20
2017-12-16T05:46:18.792Z,2.40
2017-12-16T05:46:54.296Z,4.00
2017-12-16T05:47:29.691Z,6.40
2017-12-16T05:48:08.168Z,5.60
2017-12-16T05:48:47.466Z,5.60
2017-12-16T05:49:22.741Z,4.00
2017-12-16T05:49:58.157Z,3.20
2017-12-16T05:50:33.548Z,3.20
2017-12-16T05:51:09.138Z,5.60
2017-12-16T05:51:44.619Z,4.00
2017-12-16T05:52:19.895Z,4.00
2017-12-16T05:52:55.098Z,5.60
2017-12-16T05:53:30.293Z,4.80
2017-12-16T05:54:05.776Z,2.40
2017-12-16T05:54:42.769Z,4.80
2017-12-16T05:55:18.063Z,7.20
2017-12-16T05:55:53.960Z,4.80
2017-12-16T05:56:29.254Z,4.00
2017-12-16T05:57:04.820Z,2.40
2017-12-16T05:57:41.319Z,0.80
2017-12-16T05:58:16.692Z,2.40
2017-12-16T05:58:51.986Z,3.20
2017-12-16T05:59:27.455Z,4.80
2017-12-16T06:00:02.850Z,3.20
2017-12-16T06:00:39.576Z,3.20
2017-12-16T06:01:16.648Z,2.40
2017-12-16T06:01:51.739Z,2.40
2017-12-16T06:02:27.796Z,3.20
2017-12-16T06:03:02.987Z,3.20
2017-12-16T06:03:38.274Z,2.40
2017-12-16T06:04:13.545Z,0.80
2017-12-16T06:04:49.147Z,2.40
2017-12-16T06:05:25.423Z,0.80
2017-12-16T06:06:01.147Z,0.80
2017-12-16T06:06:36.651Z,3.20
2017-12-16T06:07:11.819Z,3.20
2017-12-16T06:07:47.612Z,4.00
2017-12-16T06:08:22.886Z,4.00
2017-12-16T06:08:59.881Z,2.40
2017-12-16T06:09:35.493Z,2.40
2017-12-16T06:10:11.052Z,1.60
2017-12-16T06:10:47.448Z,0.00
2017-12-16T06:11:24.147Z,0.00
2017-12-16T06:11:59.739Z,1.60
2017-12-16T06:12:38.249Z,4.00
2017-12-16T06:13:14.821Z,2.40
2017-12-16T06:13:50.922Z,2.40
2017-12-16T06:14:26.093Z,4.00
2017-12-16T06:15:01.493Z,4.00
2017-12-16T06:15:36.881Z,0.80
2017-12-16T06:16:16.750Z,2.40
2017-12-16T06:16:52.078Z,2.40
2017-12-16T06:17:27.250Z,0.80
2017-12-16T06:18:02.353Z,2.40
2017-12-16T06:18:40.446Z,3.20
2017-12-16T06:19:15.810Z,4.00
2017-12-16T06:19:51.252Z,3.20
2017-12-16T06:20:26.768Z,2.40
2017-12-16T06:21:02.061Z,0.80
2017-12-16T06:21:37.759Z,0.00
2017-12-16T06:22:13.160Z,2.40
2017-12-16T06:22:49.864Z,1.60
2017-12-16T06:23:25.181Z,2.40
2017-12-16T06:24:00.674Z,3.20
2017-12-16T06:24:36.886Z,2.40
2017-12-16T06:25:14.552Z,3.20
2017-12-16T06:25:53.638Z,4.00
2017-12-16T06:26:35.642Z,4.00
2017-12-16T06:27:11.217Z,4.80
2017-12-16T06:27:46.446Z,4.00
2017-12-16T06:28:21.815Z,4.00
2017-12-16T06:29:03.423Z,3.20
2017-12-16T06:29:44.315Z,2.40
2017-12-16T06:30:19.777Z,1.60
2017-12-16T06:30:57.571Z,2.40
2017-12-16T06:31:32.865Z,2.40
2017-12-16T06:32:08.244Z,2.40
2017-12-16T06:32:46.780Z,2.40
2017-12-16T06:33:23.056Z,4.80
2017-12-16T06:34:01.661Z,3.20
2017-12-16T06:34:37.322Z,4.00
2017-12-16T06:35:12.597Z,4.00
2017-12-16T06:35:49.808Z,3.20
2017-12-16T06:36:25.277Z,2.40
2017-12-16T06:37:00.268Z,1.60
2017-12-16T06:37:39.462Z,0.00
2017-12-16T06:38:22.464Z,1.60
2017-12-16T06:41:04.174Z,3.20
2017-12-16T06:41:47.248Z,2.40
2017-12-16T06:44:27.334Z,2.40
2017-12-16T06:45:05.307Z,4.00
2017-12-16T06:45:44.174Z,4.00
2017-12-16T06:46:19.520Z,3.20
2017-12-16T06:46:55.392Z,3.20
2017-12-16T06:47:30.729Z,1.60
2017-12-16T06:48:05.988Z,2.40
2017-12-16T06:48:41.362Z,1.60
2017-12-16T06:49:16.417Z,5.60
2017-12-16T06:49:51.828Z,3.20
2017-12-16T06:50:27.276Z,3.20
2017-12-16T06:51:02.668Z,2.40
2017-12-16T06:51:38.745Z,1.60
2017-12-16T06:52:14.088Z,2.40
2017-12-16T06:52:49.668Z,3.20
2017-12-16T06:53:24.711Z,2.40
2017-12-16T06:53:59.790Z,4.00
2017-12-16T06:54:35.163Z,4.00
2017-12-16T06:55:10.465Z,1.60
2017-12-16T06:55:46.041Z,0.00
2017-12-16T06:56:21.301Z,0.00
2017-12-16T06:56:56.480Z,0.00
2017-12-16T06:57:32.451Z,0.80
2017-12-16T06:58:08.018Z,0.80
2017-12-16T06:58:43.992Z,3.20
2017-12-16T06:59:19.636Z,1.60
2017-12-16T06:59:55.220Z,2.40
2017-12-16T07:00:30.724Z,2.40
2017-12-16T07:01:05.985Z,2.40
2017-12-16T07:01:41.165Z,2.40
2017-12-16T07:02:16.332Z,1.60
2017-12-16T07:02:52.004Z,2.40
2017-12-16T07:03:27.062Z,1.60
2017-12-16T07:04:02.436Z,1.60
2017-12-16T07:04:37.721Z,2.40
2017-12-16T07:05:12.880Z,2.40
2017-12-16T07:05:48.295Z,2.40
2017-12-16T07:06:23.305Z,2.40
2017-12-16T07:06:58.735Z,4.80
2017-12-16T07:07:34.116Z,4.00
2017-12-16T07:08:10.479Z,2.40
2017-12-16T07:08:45.864Z,3.20
2017-12-16T07:09:21.019Z,0.80
2017-12-16T07:09:56.507Z,1.60
2017-12-16T07:10:31.696Z,0.80
2017-12-16T07:11:06.882Z,1.60
2017-12-16T07:11:42.365Z,2.40
2017-12-16T07:12:17.530Z,2.40
2017-12-16T07:12:53.715Z,4.80
2017-12-16T07:13:29.112Z,4.00
2017-12-16T07:14:04.473Z,3.20
2017-12-16T07:14:39.861Z,3.20
2017-12-16T07:15:15.119Z,4.80
2017-12-16T07:15:50.402Z,4.00
2017-12-16T07:16:25.790Z,3.20
2017-12-16T07:17:01.274Z,4.00
2017-12-16T07:17:36.556Z,1.60
2017-12-16T07:18:11.920Z,2.40
2017-12-16T07:18:47.203Z,3.20
2017-12-16T07:19:22.356Z,3.20
2017-12-16T07:19:57.740Z,4.00
2017-12-16T07:20:33.130Z,3.20
2017-12-16T07:21:08.482Z,2.40
2017-12-16T07:21:43.800Z,4.80
2017-12-16T07:22:19.173Z,2.40
2017-12-16T07:22:54.657Z,3.20
2017-12-16T07:23:30.052Z,1.60
2017-12-16T07:24:05.408Z,2.40
2017-12-16T07:24:40.893Z,4.00
2017-12-16T07:25:16.157Z,5.60
2017-12-16T07:25:51.547Z,0.80
2017-12-16T07:26:26.803Z,1.60
2017-12-16T07:27:05.530Z,3.20
2017-12-16T07:27:40.812Z,1.60
2017-12-16T07:28:16.177Z,3.20
2017-12-16T07:28:51.662Z,4.00
2017-12-16T07:29:26.722Z,4.00
2017-12-16T07:30:02.215Z,4.80
2017-12-16T07:30:37.797Z,4.00
2017-12-16T07:31:13.078Z,2.40
2017-12-16T07:31:48.482Z,4.00
2017-12-16T07:32:23.679Z,3.20
2017-12-16T07:32:58.863Z,1.60
2017-12-16T07:33:34.949Z,2.40
2017-12-16T07:34:10.517Z,2.40
2017-12-16T07:34:45.802Z,4.00
2017-12-16T07:35:21.073Z,2.40
2017-12-16T07:35:56.553Z,2.40
2017-12-16T07:36:32.038Z,3.20
2017-12-16T07:37:07.491Z,3.20
2017-12-16T07:37:42.804Z,4.00
2017-12-16T07:38:18.365Z,3.20
2017-12-16T07:38:53.650Z,6.40
2017-12-16T07:39:28.935Z,4.00
2017-12-16T07:40:04.311Z,4.00
2017-12-16T07:40:40.599Z,4.00
2017-12-16T07:41:16.060Z,3.20
2017-12-16T07:41:51.341Z,3.20
2017-12-16T07:42:26.511Z,4.00
2017-12-16T07:43:03.633Z,5.60
2017-12-16T07:43:39.123Z,8.00
2017-12-16T07:44:14.478Z,5.60
2017-12-16T07:44:49.766Z,5.60
2017-12-16T07:45:26.737Z,6.40
2017-12-16T07:46:02.813Z,4.00
2017-12-16T07:46:38.295Z,3.20
2017-12-16T07:47:13.759Z,2.40
2017-12-16T07:47:49.048Z,1.60
2017-12-16T07:48:24.345Z,3.20
2017-12-16T07:48:59.758Z,4.00
2017-12-16T07:49:35.141Z,4.00
2017-12-16T07:50:10.318Z,4.00
2017-12-16T07:50:45.811Z,0.80
2017-12-16T07:51:20.971Z,2.40
2017-12-16T07:51:56.553Z,2.40
2017-12-16T07:52:31.840Z,4.00
2017-12-16T07:53:07.300Z,4.80
2017-12-16T07:53:42.629Z,4.80
2017-12-16T07:54:17.799Z,4.00
2017-12-16T07:54:53.084Z,2.40
2017-12-16T07:55:28.446Z,1.60
2017-12-16T07:56:03.735Z,4.80
2017-12-16T07:56:39.018Z,4.80
2017-12-16T07:57:14.276Z,4.00
2017-12-16T07:57:49.366Z,2.40
2017-12-16T07:58:24.723Z,3.20
2017-12-16T07:59:00.143Z,3.20